CheckWX is a tool to help pilots better visualize weather data.  It is not intended as a substitute for an official pre-flight weather briefing.

05:54:13 UTC

DTTF TAF
Gafsa Ksar International Airport
Gafsa, Tunisia
TAF DTTF 310300Z 3104/3113 25005KT 9999 FEW026 PROB30 3104/3107 4000 BR

Mar-31@
04:00 UTC

Mar-31 @ 04:00 UTC

Mar-31@
13:00 UTC

Mar-31 @ 13:00 UTC

TAF DTTF 310300Z 3104/3113 25005KT 9999 FEW026
Wind
  • 250° at 5 KTS
Cloud Levels
  • Few at 2,600' AGL

Mar-31@
04:00 UTC

Mar-31 @ 04:00 UTC

Mar-31@
07:00 UTC

Mar-31 @ 07:00 UTC

PROB30 3104/3107 4000 BR

Probable - 30% Likelihood

Probable - 30% Likelihood during this time.

Conditions
Mist
Cloud Levels